Time;durP1;ratioP1;P1;durP2;ratioP2;P2;SDS_P1;SDS_P2;PMS_P1;PMS_P2;Temp;Humidity;BMP_temperature;BMP_pressure;BME280_temperature;BME280_humidity;BME280_pressure;Samples;Min_cycle;Max_cycle;Signal;HPM_P1;HPM_P2
2023/08/15 00:01:41;;;;;;;20.33;10.43;;;27.80;99.90;;;;;;4964097;23;20153;-55
2023/08/15 00:04:07;;;;;;;20.63;10.27;;;27.80;99.90;;;;;;4953599;28;20510;-55
2023/08/15 00:06:32;;;;;;;16.10;11.68;;;27.80;99.90;;;;;;4953510;28;20087;-55
2023/08/15 00:09:00;;;;;;;17.15;11.30;;;27.80;99.90;;;;;;4953642;28;20530;-56
2023/08/15 00:11:25;;;;;;;19.15;11.23;;;27.80;99.90;;;;;;4953697;28;20464;-56
2023/08/15 00:13:55;;;;;;;20.17;11.95;;;27.70;99.90;;;;;;4953591;29;20114;-56
2023/08/15 00:16:21;;;;;;;20.50;11.45;;;27.70;99.90;;;;;;4953585;29;20403;-55
2023/08/15 00:18:47;;;;;;;16.02;11.00;;;27.70;99.90;;;;;;4953296;28;20074;-55
2023/08/15 00:21:13;;;;;;;16.17;9.85;;;27.70;99.90;;;;;;4952056;29;20058;-55
2023/08/15 00:23:39;;;;;;;15.80;9.68;;;27.70;99.90;;;;;;4953220;28;20024;-55
2023/08/15 00:26:04;;;;;;;15.38;10.27;;;27.70;99.90;;;;;;4953383;28;20364;-55
2023/08/15 00:28:30;;;;;;;22.45;9.95;;;27.70;99.90;;;;;;4953337;28;20035;-55
2023/08/15 00:30:56;;;;;;;19.10;9.55;;;27.70;99.90;;;;;;4953592;28;20418;-55
2023/08/15 00:33:22;;;;;;;13.88;10.00;;;27.70;99.90;;;;;;4953216;28;20546;-54
2023/08/15 00:35:47;;;;;;;14.02;10.52;;;27.60;99.90;;;;;;4952630;28;20023;-53
2023/08/15 00:38:13;;;;;;;18.67;10.07;;;27.60;99.90;;;;;;4952747;28;20205;-53
2023/08/15 00:40:39;;;;;;;13.60;9.88;;;27.60;99.90;;;;;;4951991;29;20035;-54
2023/08/15 00:43:05;;;;;;;16.42;8.93;;;27.60;99.90;;;;;;4952826;28;20019;-54
2023/08/15 00:45:33;;;;;;;17.83;7.10;;;27.60;99.90;;;;;;4952736;28;20024;-54
2023/08/15 00:47:59;;;;;;;15.15;7.30;;;27.60;99.90;;;;;;4952705;28;20023;-55
2023/08/15 00:50:25;;;;;;;19.70;7.75;;;27.60;99.90;;;;;;4967359;28;20034;-55
2023/08/15 00:52:52;;;;;;;14.25;7.90;;;27.60;99.90;;;;;;4950814;28;20518;-55
2023/08/15 00:55:18;;;;;;;19.25;7.28;;;27.60;99.90;;;;;;4951134;28;20059;-54
2023/08/15 00:57:44;;;;;;;18.37;7.40;;;27.60;99.90;;;;;;4952426;28;20028;-54
2023/08/15 01:02:45;;;;;;;10.82;6.85;;;27.50;99.90;;;;;;5011377;28;20176;-50
2023/08/15 01:05:14;;;;;;;16.08;7.65;;;27.50;99.90;;;;;;5014336;28;20058;-50
2023/08/15 01:07:41;;;;;;;14.77;7.07;;;27.50;99.90;;;;;;5014738;28;20025;-48
2023/08/15 01:10:07;;;;;;;12.40;7.43;;;27.50;99.90;;;;;;5014588;28;20018;-48
2023/08/15 01:12:46;;;;;;;21.13;7.80;;;27.50;99.90;;;;;;5014556;28;20100;-48
2023/08/15 01:15:27;;;;;;;13.88;7.10;;;27.60;99.90;;;;;;5013846;28;20355;-48
2023/08/15 01:18:12;;;;;;;15.07;7.57;;;27.60;99.90;;;;;;5014751;28;20088;-48
2023/08/15 01:20:38;;;;;;;15.65;7.07;;;27.50;99.90;;;;;;5014010;28;20409;-50
2023/08/15 01:23:07;;;;;;;13.85;7.18;;;27.60;99.90;;;;;;5014175;28;20105;-49
2023/08/15 01:25:42;;;;;;;13.13;7.97;;;27.60;99.90;;;;;;5013898;28;20041;-49
2023/08/15 01:28:14;;;;;;;16.48;7.97;;;27.50;99.90;;;;;;5013704;28;20068;-49
2023/08/15 01:31:02;;;;;;;16.55;7.50;;;27.60;99.90;;;;;;5012644;28;20374;-49
2023/08/15 01:33:39;;;;;;;12.50;8.15;;;27.50;99.90;;;;;;5011380;28;20030;-49
2023/08/15 01:36:12;;;;;;;;;;;27.50;99.90;;;;;;5012429;28;20018;-48
2023/08/15 01:38:50;;;;;;;17.88;7.97;;;27.50;99.90;;;;;;5013249;28;19939;-49
2023/08/15 01:41:20;;;;;;;17.63;8.93;;;27.50;99.90;;;;;;5011472;28;20022;-49
2023/08/15 01:43:47;;;;;;;23.25;9.20;;;27.40;99.90;;;;;;5013828;28;20025;-48
2023/08/15 01:46:13;;;;;;;19.20;9.82;;;27.40;99.90;;;;;;5013135;28;20026;-48
2023/08/15 01:48:41;;;;;;;12.85;9.35;;;27.40;99.90;;;;;;5014261;28;20049;-49
2023/08/15 01:51:08;;;;;;;15.15;10.23;;;27.40;99.90;;;;;;5014177;28;20022;-49
2023/08/15 01:53:35;;;;;;;16.40;11.85;;;27.30;99.90;;;;;;5012989;28;20393;-49
2023/08/15 01:56:01;;;;;;;21.58;11.63;;;27.30;99.90;;;;;;5014465;28;20104;-49
2023/08/15 01:58:27;;;;;;;20.48;11.32;;;27.30;99.90;;;;;;5014401;28;20152;-49
2023/08/15 02:00:53;;;;;;;13.18;11.77;;;27.30;99.90;;;;;;5014533;28;20485;-49
2023/08/15 02:03:19;;;;;;;15.68;11.25;;;27.30;99.90;;;;;;5014038;28;20030;-49
2023/08/15 02:05:44;;;;;;;19.65;11.63;;;27.30;99.90;;;;;;5014185;28;20025;-49
2023/08/15 02:08:10;;;;;;;21.95;11.52;;;27.20;99.90;;;;;;5014173;28;20474;-48
2023/08/15 02:10:36;;;;;;;16.13;10.48;;;27.20;1.00;;;;;;5013488;28;20504;-49
2023/08/15 02:13:02;;;;;;;21.48;12.32;;;27.10;1.00;;;;;;5013807;28;20033;-49
2023/08/15 02:15:27;;;;;;;21.15;11.30;;;27.10;1.00;;;;;;5013918;28;20493;-49
2023/08/15 02:17:53;;;;;;;19.10;12.90;;;27.10;1.00;;;;;;5013727;28;20029;-47
2023/08/15 02:20:19;;;;;;;18.60;12.20;;;27.00;1.00;;;;;;5013989;28;20355;-48
2023/08/15 02:22:45;;;;;;;17.23;11.27;;;27.00;1.00;;;;;;5013663;28;20053;-49
2023/08/15 02:25:10;;;;;;;14.57;12.02;;;27.00;1.00;;;;;;5012564;28;20033;-49
2023/08/15 02:27:36;;;;;;;17.83;13.52;;;27.00;1.00;;;;;;5013694;28;20386;-48
2023/08/15 02:30:04;;;;;;;19.65;13.50;;;26.90;1.00;;;;;;5013855;28;20109;-48
2023/08/15 02:32:30;;;;;;;19.35;14.18;;;26.90;1.00;;;;;;5013718;28;20402;-47
2023/08/15 02:34:56;;;;;;;18.52;13.50;;;27.00;1.00;;;;;;5012119;28;20026;-48
2023/08/15 02:37:22;;;;;;;21.95;15.25;;;26.90;1.00;;;;;;5013436;28;20589;-48
2023/08/15 02:39:47;;;;;;;22.00;14.13;;;26.90;1.00;;;;;;5013318;28;20065;-48
2023/08/15 02:42:13;;;;;;;15.98;13.77;;;26.90;1.00;;;;;;5013377;28;20025;-48
2023/08/15 02:44:39;;;;;;;20.77;15.15;;;26.90;1.00;;;;;;5013087;28;20037;-48
2023/08/15 02:47:05;;;;;;;18.98;13.48;;;26.90;1.00;;;;;;5013259;28;20457;-48
2023/08/15 02:49:31;;;;;;;19.75;13.43;;;26.90;1.00;;;;;;5013564;28;20061;-48
2023/08/15 02:51:56;;;;;;;21.65;12.90;;;26.90;1.00;;;;;;5013269;28;20108;-48
2023/08/15 02:54:22;;;;;;;24.45;12.07;;;26.80;1.00;;;;;;5011866;28;20029;-49
2023/08/15 02:56:48;;;;;;;18.23;12.63;;;26.80;1.00;;;;;;5011973;28;20033;-49
2023/08/15 02:59:14;;;;;;;20.15;14.18;;;26.80;1.00;;;;;;5012998;28;20042;-47
2023/08/15 03:01:39;;;;;;;22.88;13.68;;;26.80;1.00;;;;;;5025147;22;20092;-52
2023/08/15 03:04:09;;;;;;;18.77;12.45;;;26.70;1.00;;;;;;5004176;28;20041;-52
2023/08/15 03:06:35;;;;;;;20.83;12.82;;;26.70;1.00;;;;;;5010037;28;20026;-53
2023/08/15 03:09:01;;;;;;;19.02;13.50;;;26.70;1.00;;;;;;5011423;28;20018;-52
2023/08/15 03:11:29;;;;;;;19.90;13.75;;;26.70;1.00;;;;;;5011366;28;20072;-52
2023/08/15 03:13:55;;;;;;;;;;;26.70;1.00;;;;;;5011905;28;20075;-53
2023/08/15 03:16:21;;;;;;;21.45;13.73;;;26.70;1.00;;;;;;5011910;28;19909;-53
2023/08/15 03:18:47;;;;;;;20.55;13.25;;;26.60;1.00;;;;;;5009361;28;20091;-52
2023/08/15 03:21:13;;;;;;;16.83;11.88;;;26.70;1.00;;;;;;5012124;28;20171;-53
2023/08/15 03:23:39;;;;;;;18.75;10.30;;;26.70;1.00;;;;;;5010734;28;20104;-53
2023/08/15 03:26:06;;;;;;;20.30;12.48;;;26.70;1.00;;;;;;5012571;28;20133;-52
2023/08/15 03:28:32;;;;;;;23.15;11.75;;;26.70;1.00;;;;;;5012340;28;20026;-52
2023/08/15 03:31:06;;;;;;;18.08;10.25;;;26.70;1.00;;;;;;5011725;28;20030;-51
2023/08/15 03:33:33;;;;;;;20.95;11.10;;;26.60;1.00;;;;;;5008591;28;20053;-52
2023/08/15 03:35:59;;;;;;;24.13;10.60;;;26.60;1.00;;;;;;5011232;28;20021;-52
2023/08/15 03:38:24;;;;;;;15.32;11.50;;;26.60;1.00;;;;;;5012001;28;20034;-51
2023/08/15 03:41:02;;;;;;;13.10;10.10;;;26.60;1.00;;;;;;5012033;28;20021;-52
2023/08/15 03:43:28;;;;;;;21.90;10.40;;;26.60;1.00;;;;;;5010787;28;20065;-51
2023/08/15 03:45:54;;;;;;;15.03;9.77;;;26.50;1.00;;;;;;5010633;28;20030;-52
2023/08/15 03:48:20;;;;;;;16.95;10.52;;;26.50;1.00;;;;;;5011701;28;20084;-51
2023/08/15 03:50:46;;;;;;;18.00;12.63;;;26.50;1.00;;;;;;5010629;28;20036;-52
2023/08/15 03:53:11;;;;;;;17.25;10.80;;;26.40;1.00;;;;;;5011183;28;20022;-52
2023/08/15 03:55:37;;;;;;;17.27;10.32;;;26.40;1.00;;;;;;5009794;28;20037;-54
2023/08/15 03:58:03;;;;;;;20.05;12.88;;;26.30;1.00;;;;;;5011819;28;20038;-52
2023/08/15 04:00:29;;;;;;;21.52;13.07;;;26.20;1.00;;;;;;5011621;28;20105;-52
2023/08/15 04:02:54;;;;;;;19.48;13.85;;;26.20;1.00;;;;;;5011748;28;20401;-53
2023/08/15 04:05:20;;;;;;;24.27;13.82;;;26.30;1.00;;;;;;5011710;28;20025;-52
2023/08/15 04:07:47;;;;;;;25.58;12.38;;;26.20;1.00;;;;;;5010785;28;20022;-52
2023/08/15 04:10:13;;;;;;;20.10;12.77;;;26.20;1.00;;;;;;5011295;28;20030;-53
2023/08/15 04:12:40;;;;;;;18.35;12.90;;;26.20;1.00;;;;;;5011521;28;20049;-53
2023/08/15 04:15:06;;;;;;;19.90;13.82;;;26.20;1.00;;;;;;5011798;28;20029;-52
2023/08/15 04:17:32;;;;;;;17.13;13.07;;;26.20;1.00;;;;;;5024086;28;20141;-52
2023/08/15 04:19:58;;;;;;;18.85;11.65;;;26.20;1.00;;;;;;5010294;28;20489;-53
2023/08/15 04:22:23;;;;;;;20.85;11.68;;;26.20;1.00;;;;;;5011542;28;20116;-54
2023/08/15 04:24:49;;;;;;;18.73;12.15;;;26.20;1.00;;;;;;5011410;28;20033;-53
2023/08/15 04:27:15;;;;;;;21.48;11.98;;;26.20;1.00;;;;;;5011490;28;20474;-53
2023/08/15 04:29:41;;;;;;;19.70;11.88;;;26.20;1.00;;;;;;5011417;28;20015;-53
2023/08/15 04:32:06;;;;;;;27.58;12.55;;;26.20;1.00;;;;;;5011615;28;20160;-53
2023/08/15 04:34:32;;;;;;;15.38;11.07;;;26.20;1.00;;;;;;5009683;28;20014;-52
2023/08/15 04:36:58;;;;;;;19.98;11.25;;;26.20;1.00;;;;;;5015203;28;20030;-52
2023/08/15 04:39:24;;;;;;;16.58;11.70;;;26.20;1.00;;;;;;5014932;28;20034;-53
2023/08/15 04:41:50;;;;;;;18.15;12.18;;;26.20;1.00;;;;;;5014893;28;20033;-53
2023/08/15 04:44:16;;;;;;;20.05;10.30;;;26.20;1.00;;;;;;5015111;28;20109;-53
2023/08/15 04:46:41;;;;;;;13.13;10.73;;;26.30;1.00;;;;;;5014348;28;20030;-53
2023/08/15 04:49:07;;;;;;;14.90;10.90;;;26.30;1.00;;;;;;5014494;28;20500;-54
2023/08/15 04:51:33;;;;;;;22.05;13.55;;;26.30;1.00;;;;;;5015543;28;20037;-53
2023/08/15 04:53:59;;;;;;;18.38;12.45;;;26.30;1.00;;;;;;5014258;28;20421;-52
2023/08/15 04:56:25;;;;;;;25.10;11.88;;;26.30;1.40;;;;;;5015511;28;20056;-52
2023/08/15 04:58:51;;;;;;;21.25;10.48;;;26.40;1.40;;;;;;5014777;28;20504;-53
2023/08/15 05:01:17;;;;;;;18.40;10.45;;;26.30;1.00;;;;;;5014897;28;20046;-52
2023/08/15 05:03:43;;;;;;;25.73;10.55;;;26.40;99.90;;;;;;5015344;28;20413;-52
2023/08/15 05:06:08;;;;;;;18.10;10.98;;;26.50;99.90;;;;;;5015328;28;20101;-52
2023/08/15 05:08:34;;;;;;;15.90;11.88;;;26.50;99.90;;;;;;5015270;28;20022;-52
2023/08/15 05:11:03;;;;;;;21.10;12.80;;;26.50;99.90;;;;;;5015057;28;20047;-52
2023/08/15 05:13:29;;;;;;;19.33;11.57;;;26.50;99.90;;;;;;5015192;28;20033;-52
2023/08/15 05:15:55;;;;;;;15.85;11.55;;;26.50;99.90;;;;;;5015193;28;20108;-52
2023/08/15 05:18:21;;;;;;;17.75;10.80;;;26.50;99.90;;;;;;5014986;28;20029;-52
2023/08/15 05:20:47;;;;;;;17.15;11.30;;;26.50;99.90;;;;;;5015223;28;20025;-52
2023/08/15 05:23:16;;;;;;;23.83;12.23;;;26.50;99.90;;;;;;5014981;28;20367;-52
2023/08/15 05:25:43;;;;;;;20.38;11.80;;;26.50;99.90;;;;;;5014877;28;20264;-52
2023/08/15 05:28:10;;;;;;;17.05;11.95;;;26.50;99.90;;;;;;5014982;28;20117;-52
2023/08/15 05:30:36;;;;;;;17.00;11.07;;;26.50;99.90;;;;;;5014589;28;20486;-52
2023/08/15 05:33:02;;;;;;;19.13;12.27;;;26.50;99.90;;;;;;5014807;28;20538;-52
2023/08/15 05:35:28;;;;;;;15.40;10.95;;;26.40;99.90;;;;;;5013416;28;20428;-53
2023/08/15 05:37:54;;;;;;;19.95;11.82;;;26.50;99.90;;;;;;5014721;28;20022;-53
2023/08/15 05:40:20;;;;;;;12.90;9.55;;;26.40;99.90;;;;;;5014787;28;20160;-53
2023/08/15 05:42:46;;;;;;;14.10;9.23;;;26.40;99.90;;;;;;5013367;28;20029;-53
2023/08/15 05:45:13;;;;;;;14.00;10.38;;;26.40;99.90;;;;;;5014830;28;20030;-53
2023/08/15 05:47:39;;;;;;;13.65;10.00;;;26.40;99.90;;;;;;5014886;28;20028;-53
2023/08/15 05:50:06;;;;;;;15.27;9.73;;;26.40;99.90;;;;;;5014493;28;20477;-53
2023/08/15 05:52:31;;;;;;;15.93;10.23;;;26.30;99.90;;;;;;5014578;28;20018;-53
2023/08/15 05:54:57;;;;;;;13.70;8.88;;;26.30;99.90;;;;;;5014524;28;20026;-52
2023/08/15 05:57:23;;;;;;;10.82;9.02;;;26.40;99.90;;;;;;5014427;28;20056;-52
2023/08/15 05:59:49;;;;;;;13.48;9.38;;;26.40;99.90;;;;;;5014362;28;20066;-52
2023/08/15 06:02:15;;;;;;;17.15;9.18;;;26.30;99.90;;;;;;5014087;28;20441;-52
2023/08/15 06:04:41;;;;;;;15.68;8.77;;;26.30;99.90;;;;;;5014373;28;20030;-52
2023/08/15 06:07:07;;;;;;;14.90;9.20;;;26.30;99.90;;;;;;5014084;28;20136;-52
2023/08/15 06:09:33;;;;;;;13.63;9.15;;;26.40;99.90;;;;;;5014071;28;20515;-52
2023/08/15 06:11:59;;;;;;;17.55;9.52;;;26.40;99.90;;;;;;5014081;28;20030;-52
2023/08/15 06:14:25;;;;;;;16.23;11.15;;;26.40;99.90;;;;;;5014171;28;20093;-52
2023/08/15 06:16:50;;;;;;;18.40;8.85;;;26.40;99.90;;;;;;5014144;28;20022;-52
2023/08/15 06:19:17;;;;;;;20.83;9.15;;;26.40;99.90;;;;;;5013936;28;20034;-52
2023/08/15 06:21:43;;;;;;;18.57;9.37;;;26.40;99.90;;;;;;5014146;28;20045;-52
2023/08/15 06:24:10;;;;;;;17.52;9.63;;;26.40;99.90;;;;;;5013920;28;20025;-53
2023/08/15 06:26:36;;;;;;;23.08;9.20;;;26.40;99.90;;;;;;5013814;28;20029;-53
2023/08/15 06:29:05;;;;;;;20.30;11.27;;;26.40;99.90;;;;;;5013772;28;20037;-53
2023/08/15 06:31:34;;;;;;;20.27;13.05;;;26.40;99.90;;;;;;5013705;28;20053;-53
2023/08/15 06:34:01;;;;;;;32.88;25.95;;;26.50;99.90;;;;;;5013651;28;20033;-52
2023/08/15 06:36:27;;;;;;;25.23;15.90;;;26.50;99.90;;;;;;5013574;28;20111;-52
2023/08/15 06:38:52;;;;;;;22.20;14.05;;;26.50;99.90;;;;;;5013387;28;20493;-51
2023/08/15 06:41:18;;;;;;;16.63;11.15;;;26.50;99.90;;;;;;5012225;28;20018;-52
2023/08/15 06:43:44;;;;;;;22.70;14.32;;;26.50;99.90;;;;;;5013727;28;20382;-53
2023/08/15 06:46:16;;;;;;;30.98;17.05;;;26.60;99.90;;;;;;5013559;28;20018;-52
2023/08/15 06:48:42;;;;;;;15.95;9.50;;;26.60;99.90;;;;;;5013578;28;20057;-53
2023/08/15 06:51:07;;;;;;;20.17;11.25;;;26.60;99.90;;;;;;5013442;28;20052;-53
2023/08/15 06:53:33;;;;;;;40.80;26.45;;;26.70;99.90;;;;;;5013381;28;20117;-53
2023/08/15 06:55:59;;;;;;;17.77;13.57;;;26.70;99.90;;;;;;5013308;28;20113;-53
2023/08/15 06:58:26;;;;;;;22.10;14.18;;;26.70;99.90;;;;;;5012611;28;20125;-53
2023/08/15 07:00:52;;;;;;;19.13;13.00;;;26.70;99.90;;;;;;5013015;28;20513;-52
2023/08/15 07:03:18;;;;;;;19.85;10.90;;;26.70;99.90;;;;;;5013010;28;20034;-53
2023/08/15 07:05:44;;;;;;;21.73;10.40;;;26.70;99.90;;;;;;5013458;28;20026;-53
2023/08/15 07:08:12;;;;;;;23.38;11.30;;;26.70;99.90;;;;;;5013211;28;20057;-53
2023/08/15 07:10:39;;;;;;;19.17;10.60;;;26.70;99.90;;;;;;5012943;28;20433;-52
2023/08/15 07:13:05;;;;;;;17.95;12.05;;;26.80;99.90;;;;;;5012890;28;20030;-53
2023/08/15 07:15:31;;;;;;;17.23;10.65;;;26.80;99.90;;;;;;5012924;28;20044;-53
2023/08/15 07:17:56;;;;;;;13.90;9.93;;;26.80;99.90;;;;;;5011562;28;20030;-52
2023/08/15 07:20:22;;;;;;;15.13;11.90;;;26.80;99.90;;;;;;5012948;28;20121;-52
2023/08/15 07:22:48;;;;;;;20.35;11.85;;;26.80;99.90;;;;;;5012853;28;20029;-53
2023/08/15 07:25:14;;;;;;;18.17;10.98;;;26.80;99.90;;;;;;5012928;28;20053;-53
2023/08/15 07:27:40;;;;;;;15.30;10.73;;;26.80;99.90;;;;;;5012700;28;20041;-53
2023/08/15 07:30:06;;;;;;;18.60;10.40;;;26.80;99.90;;;;;;5012700;28;20065;-52
2023/08/15 07:32:36;;;;;;;19.90;12.77;;;26.80;99.90;;;;;;5011335;28;20527;-53
2023/08/15 07:35:03;;;;;;;14.55;10.57;;;26.90;99.90;;;;;;5011444;28;20026;-53
2023/08/15 07:37:29;;;;;;;;;;;26.90;99.90;;;;;;5012981;28;20072;-53
2023/08/15 07:40:05;;;;;;;13.93;8.85;;;26.90;99.90;;;;;;5012495;28;20011;-53
2023/08/15 07:42:32;;;;;;;12.82;8.95;;;26.90;99.90;;;;;;5012456;28;20478;-53
2023/08/15 07:44:58;;;;;;;19.90;8.93;;;26.90;99.90;;;;;;5012384;28;20138;-53
2023/08/15 07:47:24;;;;;;;17.30;9.45;;;27.00;99.90;;;;;;5012450;28;20051;-52
2023/08/15 07:50:16;;;;;;;22.02;12.77;;;27.00;99.90;;;;;;5012462;28;20049;-52
2023/08/15 07:52:43;;;;;;;18.02;11.90;;;27.00;99.90;;;;;;5012336;28;20504;-53
2023/08/15 07:55:10;;;;;;;26.37;12.00;;;27.10;99.90;;;;;;5012342;28;20112;-52
2023/08/15 07:57:36;;;;;;;16.65;9.40;;;27.10;99.90;;;;;;5012132;28;20615;-53
2023/08/15 08:00:02;;;;;;;18.02;12.52;;;27.10;99.90;;;;;;5012108;28;20036;-53
2023/08/15 08:02:28;;;;;;;12.60;8.27;;;27.10;99.90;;;;;;5012012;28;20102;-52
2023/08/15 08:04:54;;;;;;;20.02;11.05;;;27.10;99.90;;;;;;5012251;28;20056;-52
2023/08/15 08:07:20;;;;;;;15.80;10.32;;;27.10;99.90;;;;;;5012366;28;20044;-52
2023/08/15 08:09:46;;;;;;;17.75;9.00;;;27.20;99.90;;;;;;5013709;28;20096;-52
2023/08/15 08:12:12;;;;;;;17.20;9.15;;;27.20;99.90;;;;;;5016176;28;20486;-52
2023/08/15 08:14:38;;;;;;;12.02;8.88;;;27.20;99.90;;;;;;5016075;28;20057;-52
2023/08/15 08:17:04;;;;;;;15.48;10.50;;;27.20;99.90;;;;;;5014746;28;20029;-52
2023/08/15 08:19:29;;;;;;;16.70;9.00;;;27.20;99.90;;;;;;5014593;28;20084;-52
2023/08/15 08:21:55;;;;;;;16.48;10.30;;;27.20;99.90;;;;;;5014577;28;20022;-52
2023/08/15 08:24:21;;;;;;;13.65;7.40;;;27.20;99.90;;;;;;5016208;28;20335;-51
2023/08/15 08:26:47;;;;;;;11.55;8.20;;;27.30;99.90;;;;;;5016197;28;20464;-52
2023/08/15 08:29:12;;;;;;;12.05;6.15;;;27.30;99.90;;;;;;5014637;28;20026;-52
2023/08/15 08:31:39;;;;;;;13.40;9.90;;;27.30;99.90;;;;;;5015836;28;20121;-52
2023/08/15 08:34:13;;;;;;;13.18;6.28;;;27.40;99.90;;;;;;5015743;28;20482;-52
2023/08/15 08:36:42;;;;;;;18.42;7.72;;;27.40;99.90;;;;;;5015621;28;20045;-53
2023/08/15 08:39:09;;;;;;;22.73;12.57;;;27.40;99.90;;;;;;5015544;28;20038;-52
2023/08/15 08:41:38;;;;;;;20.00;7.30;;;27.50;99.90;;;;;;5014257;28;20029;-53
2023/08/15 08:44:05;;;;;;;15.45;8.00;;;27.50;99.90;;;;;;5015639;28;20030;-52
2023/08/15 08:46:32;;;;;;;14.00;11.30;;;27.60;99.90;;;;;;5015476;28;20025;-52
2023/08/15 08:49:01;;;;;;;17.17;8.32;;;27.60;99.90;;;;;;5015443;28;20117;-51
2023/08/15 08:51:27;;;;;;;22.10;8.18;;;27.60;99.90;;;;;;5015451;28;20392;-52
2023/08/15 08:53:54;;;;;;;16.48;6.70;;;27.70;99.90;;;;;;5015495;28;20030;-52
2023/08/15 08:56:24;;;;;;;15.20;5.20;;;27.70;99.90;;;;;;5015621;28;20026;-52
2023/08/15 08:58:57;;;;;;;10.43;5.50;;;27.80;99.90;;;;;;5014210;28;20105;-52
2023/08/15 09:01:23;;;;;;;12.63;5.78;;;27.80;99.90;;;;;;5014047;28;20053;-52
2023/08/15 09:03:49;;;;;;;10.60;5.22;;;27.90;99.90;;;;;;5015498;28;20026;-52
2023/08/15 09:06:15;;;;;;;7.07;4.72;;;27.90;99.90;;;;;;5013777;28;20501;-52
2023/08/15 09:08:40;;;;;;;7.00;5.13;;;28.00;99.90;;;;;;5015118;28;20426;-52
2023/08/15 09:11:06;;;;;;;11.30;5.13;;;28.00;99.90;;;;;;5015035;28;20030;-52
2023/08/15 09:13:32;;;;;;;10.05;5.03;;;28.10;99.90;;;;;;5015172;28;20433;-52
2023/08/15 09:15:59;;;;;;;9.45;5.78;;;28.10;99.90;;;;;;5015168;28;20061;-52
2023/08/15 09:18:26;;;;;;;11.20;7.22;;;28.20;99.90;;;;;;5014962;28;20100;-52
2023/08/15 09:20:52;;;;;;;10.63;6.25;;;28.20;99.90;;;;;;5014663;28;20034;-52
2023/08/15 09:23:18;;;;;;;11.82;6.15;;;28.20;99.90;;;;;;5014950;28;20026;-52
2023/08/15 09:25:47;;;;;;;13.23;7.78;;;28.30;99.90;;;;;;5015024;28;20026;-52
2023/08/15 09:28:14;;;;;;;14.95;5.82;;;28.30;99.90;;;;;;5014888;28;20049;-52
2023/08/15 09:30:48;;;;;;;;;;;28.40;99.90;;;;;;5015294;28;20535;-52
2023/08/15 09:33:14;;;;;;;14.63;7.22;;;28.40;99.90;;;;;;5014895;28;19905;-52
2023/08/15 09:35:40;;;;;;;13.10;6.38;;;28.40;99.90;;;;;;5014680;28;20386;-53
2023/08/15 09:38:07;;;;;;;12.43;6.63;;;28.40;99.90;;;;;;5013331;28;20034;-52
2023/08/15 09:40:33;;;;;;;9.18;6.40;;;28.40;99.90;;;;;;5014604;28;20048;-52
2023/08/15 09:42:59;;;;;;;11.90;7.45;;;28.50;99.90;;;;;;5013287;28;20097;-53
2023/08/15 09:45:25;;;;;;;10.18;6.05;;;28.50;99.90;;;;;;5014720;28;20482;-52
2023/08/15 09:47:51;;;;;;;15.98;10.10;;;28.50;99.90;;;;;;5013311;28;20022;-52
2023/08/15 09:50:17;;;;;;;11.95;6.43;;;28.50;99.90;;;;;;5014551;28;20018;-53
2023/08/15 09:52:44;;;;;;;10.05;5.70;;;28.50;99.90;;;;;;5014468;28;20080;-52
2023/08/15 09:55:11;;;;;;;11.93;7.35;;;28.60;99.90;;;;;;5014525;28;20108;-52
2023/08/15 09:57:42;;;;;;;13.27;6.63;;;28.60;99.90;;;;;;5014381;28;20054;-52
2023/08/15 10:00:12;;;;;;;11.75;6.13;;;28.70;99.90;;;;;;5014235;28;20034;-52
2023/08/15 10:02:58;;;;;;;8.43;6.15;;;28.70;99.90;;;;;;5013986;28;20398;-52
2023/08/15 10:05:27;;;;;;;18.73;10.30;;;28.80;99.90;;;;;;5014221;28;20034;-52
2023/08/15 10:07:55;;;;;;;13.32;8.90;;;28.80;99.90;;;;;;5014418;28;20076;-53
2023/08/15 10:10:21;;;;;;;15.18;7.68;;;28.80;99.90;;;;;;5014147;28;20470;-54
2023/08/15 10:12:49;;;;;;;12.05;5.70;;;28.80;99.90;;;;;;5014024;28;20038;-53
2023/08/15 10:15:16;;;;;;;11.27;7.00;;;28.90;99.90;;;;;;5013988;28;20036;-53
2023/08/15 10:17:42;;;;;;;12.63;6.80;;;28.90;99.90;;;;;;5013891;28;20018;-53
2023/08/15 10:20:15;;;;;;;14.30;8.02;;;29.00;99.90;;;;;;5013918;28;20124;-53
2023/08/15 10:22:41;;;;;;;15.32;6.63;;;29.00;99.90;;;;;;5013614;28;20048;-53
2023/08/15 10:25:25;;;;;;;15.25;8.48;;;29.00;99.90;;;;;;5013586;28;20052;-53
2023/08/15 10:27:53;;;;;;;16.48;9.00;;;29.00;99.90;;;;;;5013526;28;20470;-52
2023/08/15 10:30:33;;;;;;;;;;;29.00;99.90;;;;;;5013890;28;20044;-52
2023/08/15 10:33:03;;;;;;;13.38;8.93;;;29.00;99.90;;;;;;5012666;28;19909;-52
2023/08/15 10:35:32;;;;;;;10.98;6.75;;;29.00;99.90;;;;;;5013285;28;20029;-52
2023/08/15 10:37:58;;;;;;;13.25;6.95;;;29.00;99.90;;;;;;5011930;28;20112;-52
2023/08/15 10:40:38;;;;;;;18.92;11.77;;;29.00;99.90;;;;;;4995862;28;20124;-53
2023/08/15 10:43:09;;;;;;;14.15;5.97;;;29.00;99.90;;;;;;5013206;28;20378;-52
2023/08/15 10:45:50;;;;;;;12.05;6.18;;;29.00;99.90;;;;;;5013071;28;20017;-52
2023/08/15 10:48:41;;;;;;;13.63;6.80;;;28.90;99.90;;;;;;5011855;28;20033;-53
2023/08/15 10:51:25;;;;;;;10.38;6.30;;;28.90;99.90;;;;;;5013085;28;20025;-53
2023/08/15 10:54:02;;;;;;;11.98;6.72;;;28.80;99.90;;;;;;5012943;28;20099;-53
2023/08/15 10:56:33;;;;;;;14.43;7.30;;;28.90;99.90;;;;;;5011960;28;20026;-53
2023/08/15 10:59:04;;;;;;;12.20;6.03;;;28.90;99.90;;;;;;5013114;28;20044;-53
2023/08/15 11:01:30;;;;;;;16.10;7.28;;;28.90;99.90;;;;;;5012774;28;20046;-53
2023/08/15 11:03:57;;;;;;;13.30;6.43;;;28.90;99.90;;;;;;5013207;28;20096;-53
2023/08/15 11:06:23;;;;;;;14.27;6.15;;;28.90;99.90;;;;;;5012837;28;20022;-53
2023/08/15 11:08:55;;;;;;;17.25;9.57;;;28.90;99.90;;;;;;5011379;28;20034;-53
2023/08/15 11:11:21;;;;;;;7.40;5.35;;;28.90;99.90;;;;;;5012718;28;20025;-53
2023/08/15 11:13:49;;;;;;;8.95;4.03;;;28.90;99.90;;;;;;5011524;28;20057;-53
2023/08/15 11:16:15;;;;;;;;;;;29.00;99.90;;;;;;5011648;28;20029;-53
2023/08/15 11:18:42;;;;;;;11.30;5.93;;;29.00;99.90;;;;;;5011290;28;19920;-53
2023/08/15 11:21:12;;;;;;;14.95;6.63;;;29.00;99.90;;;;;;5012497;28;20133;-53
2023/08/15 11:23:38;;;;;;;18.85;8.85;;;29.00;99.90;;;;;;5012491;28;20029;-53
2023/08/15 11:26:09;;;;;;;13.60;6.07;;;29.10;99.90;;;;;;5012760;28;20458;-53
2023/08/15 11:28:35;;;;;;;11.90;7.18;;;29.10;99.90;;;;;;5012770;28;20395;-53
2023/08/15 11:31:05;;;;;;;13.55;5.70;;;29.10;99.90;;;;;;5012433;28;20474;-54
2023/08/15 11:33:31;;;;;;;8.93;4.82;;;29.20;99.90;;;;;;5012039;28;20087;-53
2023/08/15 11:36:01;;;;;;;16.95;5.60;;;29.20;99.90;;;;;;5012932;28;20022;-53
2023/08/15 11:38:30;;;;;;;15.45;6.10;;;29.10;99.90;;;;;;5012838;28;20547;-53
2023/08/15 11:41:01;;;;;;;13.32;4.65;;;29.10;99.90;;;;;;5012774;28;20036;-52
2023/08/15 11:43:30;;;;;;;11.85;4.90;;;29.20;99.90;;;;;;5012434;28;20470;-52
2023/08/15 11:45:56;;;;;;;10.98;5.95;;;29.10;99.90;;;;;;5012468;28;20174;-53
2023/08/15 11:48:22;;;;;;;14.70;6.45;;;29.10;99.90;;;;;;5012353;28;20481;-52
2023/08/15 11:50:50;;;;;;;17.20;5.13;;;29.20;99.90;;;;;;5012281;28;20390;-52
2023/08/15 11:53:18;;;;;;;10.73;5.57;;;29.20;99.90;;;;;;5012372;28;20025;-52
2023/08/15 11:55:45;;;;;;;11.90;5.75;;;29.20;99.90;;;;;;5012319;28;20034;-53
2023/08/15 11:58:40;;;;;;;14.13;6.18;;;29.20;99.90;;;;;;5012205;28;20470;-52
2023/08/15 12:01:08;;;;;;;11.15;5.40;;;29.10;99.90;;;;;;5007318;28;20398;-52
2023/08/15 12:03:35;;;;;;;10.05;5.47;;;29.10;99.90;;;;;;5012079;28;20476;-52
2023/08/15 12:06:05;;;;;;;10.93;7.65;;;29.10;99.90;;;;;;5012131;28;20105;-52
2023/08/15 12:08:32;;;;;;;10.60;5.25;;;29.10;99.90;;;;;;5012248;28;20107;-52
2023/08/15 12:11:02;;;;;;;10.33;4.90;;;29.10;99.90;;;;;;5010773;28;20022;-52
2023/08/15 12:13:32;;;;;;;8.93;4.30;;;29.10;99.90;;;;;;5012032;28;20032;-52
2023/08/15 12:15:59;;;;;;;13.90;5.25;;;29.10;99.90;;;;;;5012219;28;20050;-52
2023/08/15 12:18:25;;;;;;;9.00;5.85;;;29.10;99.90;;;;;;5011974;28;20018;-52
2023/08/15 12:20:50;;;;;;;11.38;5.43;;;29.20;99.90;;;;;;5010589;28;20034;-52
2023/08/15 12:23:16;;;;;;;11.85;6.30;;;29.20;99.90;;;;;;5011999;28;20053;-52
2023/08/15 12:25:42;;;;;;;12.43;5.22;;;29.20;99.90;;;;;;5011848;28;20025;-52
2023/08/15 12:28:08;;;;;;;16.20;5.75;;;29.20;99.90;;;;;;5011978;28;20382;-52
2023/08/15 12:30:34;;;;;;;11.82;6.60;;;29.20;99.90;;;;;;5012002;28;20045;-51
2023/08/15 12:33:01;;;;;;;12.10;6.47;;;29.20;99.90;;;;;;5011997;28;20064;-51
2023/08/15 12:35:27;;;;;;;13.93;6.70;;;29.20;99.90;;;;;;5011923;28;20052;-52
2023/08/15 12:37:53;;;;;;;10.95;5.32;;;29.30;99.90;;;;;;5011751;28;20477;-51
2023/08/15 12:40:18;;;;;;;14.77;7.10;;;29.30;99.90;;;;;;5011827;28;20037;-53